sensor_id;sensor_type;location;lat;lon;timestamp;P1;durP1;ratioP1;P2;durP2;ratioP2
21754;SDS011;11039;50.028;19.938;2023-04-25T00:00:33;8.27;;;5.75;;
21754;SDS011;11039;50.028;19.938;2023-04-25T00:02:59;8.20;;;5.22;;
21754;SDS011;11039;50.028;19.938;2023-04-25T00:05:26;7.82;;;5.47;;
21754;SDS011;11039;50.028;19.938;2023-04-25T00:07:52;8.02;;;5.30;;
21754;SDS011;11039;50.028;19.938;2023-04-25T00:10:19;7.88;;;5.22;;
21754;SDS011;11039;50.028;19.938;2023-04-25T00:12:45;7.47;;;5.30;;
21754;SDS011;11039;50.028;19.938;2023-04-25T00:15:11;7.47;;;5.22;;
21754;SDS011;11039;50.028;19.938;2023-04-25T00:17:37;6.82;;;4.47;;
21754;SDS011;11039;50.028;19.938;2023-04-25T00:20:04;6.53;;;4.78;;
21754;SDS011;11039;50.028;19.938;2023-04-25T00:22:30;4.90;;;4.25;;
21754;SDS011;11039;50.028;19.938;2023-04-25T00:24:56;6.47;;;4.85;;
21754;SDS011;11039;50.028;19.938;2023-04-25T00:27:25;5.82;;;4.53;;
21754;SDS011;11039;50.028;19.938;2023-04-25T00:29:51;7.57;;;5.38;;
21754;SDS011;11039;50.028;19.938;2023-04-25T00:32:17;5.15;;;4.53;;
21754;SDS011;11039;50.028;19.938;2023-04-25T00:34:43;6.88;;;4.65;;
21754;SDS011;11039;50.028;19.938;2023-04-25T00:37:09;6.28;;;4.72;;
21754;SDS011;11039;50.028;19.938;2023-04-25T00:39:35;5.97;;;4.53;;
21754;SDS011;11039;50.028;19.938;2023-04-25T00:42:01;6.40;;;4.30;;
21754;SDS011;11039;50.028;19.938;2023-04-25T00:44:29;7.28;;;4.47;;
21754;SDS011;11039;50.028;19.938;2023-04-25T00:46:55;5.80;;;4.30;;
21754;SDS011;11039;50.028;19.938;2023-04-25T00:49:21;5.70;;;4.03;;
21754;SDS011;11039;50.028;19.938;2023-04-25T00:51:47;5.45;;;4.00;;
21754;SDS011;11039;50.028;19.938;2023-04-25T00:54:13;5.88;;;4.00;;
21754;SDS011;11039;50.028;19.938;2023-04-25T00:56:40;7.35;;;4.60;;
21754;SDS011;11039;50.028;19.938;2023-04-25T00:59:06;4.45;;;3.63;;
21754;SDS011;11039;50.028;19.938;2023-04-25T01:01:33;5.63;;;3.83;;
21754;SDS011;11039;50.028;19.938;2023-04-25T01:04:00;4.78;;;3.63;;
21754;SDS011;11039;50.028;19.938;2023-04-25T01:06:26;4.72;;;3.90;;
21754;SDS011;11039;50.028;19.938;2023-04-25T01:08:52;4.80;;;3.83;;
21754;SDS011;11039;50.028;19.938;2023-04-25T01:11:18;6.75;;;3.80;;
21754;SDS011;11039;50.028;19.938;2023-04-25T01:13:44;4.38;;;3.60;;
21754;SDS011;11039;50.028;19.938;2023-04-25T01:16:11;4.40;;;3.50;;
21754;SDS011;11039;50.028;19.938;2023-04-25T01:18:38;4.22;;;3.30;;
21754;SDS011;11039;50.028;19.938;2023-04-25T01:21:11;4.20;;;3.22;;
21754;SDS011;11039;50.028;19.938;2023-04-25T01:23:38;4.28;;;3.65;;
21754;SDS011;11039;50.028;19.938;2023-04-25T01:26:05;4.30;;;3.13;;
21754;SDS011;11039;50.028;19.938;2023-04-25T01:28:33;3.95;;;3.38;;
21754;SDS011;11039;50.028;19.938;2023-04-25T01:30:59;4.05;;;3.47;;
21754;SDS011;11039;50.028;19.938;2023-04-25T01:33:25;4.40;;;3.30;;
21754;SDS011;11039;50.028;19.938;2023-04-25T01:35:51;4.03;;;3.20;;
21754;SDS011;11039;50.028;19.938;2023-04-25T01:38:17;4.68;;;3.20;;
21754;SDS011;11039;50.028;19.938;2023-04-25T01:40:44;4.50;;;3.20;;
21754;SDS011;11039;50.028;19.938;2023-04-25T01:43:12;4.47;;;3.20;;
21754;SDS011;11039;50.028;19.938;2023-04-25T01:45:39;4.93;;;3.20;;
21754;SDS011;11039;50.028;19.938;2023-04-25T01:48:06;3.80;;;2.90;;
21754;SDS011;11039;50.028;19.938;2023-04-25T01:50:32;3.95;;;3.00;;
21754;SDS011;11039;50.028;19.938;2023-04-25T01:52:59;3.50;;;2.90;;
21754;SDS011;11039;50.028;19.938;2023-04-25T01:55:25;4.55;;;2.97;;
21754;SDS011;11039;50.028;19.938;2023-04-25T01:57:51;3.10;;;2.80;;
21754;SDS011;11039;50.028;19.938;2023-04-25T02:00:17;3.67;;;2.90;;
21754;SDS011;11039;50.028;19.938;2023-04-25T02:02:44;2.88;;;2.55;;
21754;SDS011;11039;50.028;19.938;2023-04-25T02:05:10;4.00;;;2.92;;
21754;SDS011;11039;50.028;19.938;2023-04-25T02:07:36;3.35;;;2.70;;
21754;SDS011;11039;50.028;19.938;2023-04-25T02:10:02;3.70;;;2.47;;
21754;SDS011;11039;50.028;19.938;2023-04-25T02:12:28;2.88;;;2.58;;
21754;SDS011;11039;50.028;19.938;2023-04-25T02:14:55;4.38;;;2.83;;
21754;SDS011;11039;50.028;19.938;2023-04-25T02:17:22;3.80;;;2.30;;
21754;SDS011;11039;50.028;19.938;2023-04-25T02:19:48;2.78;;;2.40;;
21754;SDS011;11039;50.028;19.938;2023-04-25T02:22:15;3.13;;;2.50;;
21754;SDS011;11039;50.028;19.938;2023-04-25T02:24:41;3.30;;;2.55;;
21754;SDS011;11039;50.028;19.938;2023-04-25T02:27:07;2.80;;;2.22;;
21754;SDS011;11039;50.028;19.938;2023-04-25T02:29:33;2.40;;;2.15;;
21754;SDS011;11039;50.028;19.938;2023-04-25T02:31:59;2.60;;;2.40;;
21754;SDS011;11039;50.028;19.938;2023-04-25T02:34:25;2.22;;;1.90;;
21754;SDS011;11039;50.028;19.938;2023-04-25T02:36:51;2.95;;;2.20;;
21754;SDS011;11039;50.028;19.938;2023-04-25T02:39:17;3.40;;;2.38;;
21754;SDS011;11039;50.028;19.938;2023-04-25T02:41:43;3.55;;;2.15;;
21754;SDS011;11039;50.028;19.938;2023-04-25T02:44:10;3.67;;;2.38;;
21754;SDS011;11039;50.028;19.938;2023-04-25T02:46:36;2.72;;;2.10;;
21754;SDS011;11039;50.028;19.938;2023-04-25T02:49:02;2.22;;;2.03;;
21754;SDS011;11039;50.028;19.938;2023-04-25T02:51:28;2.80;;;1.88;;
21754;SDS011;11039;50.028;19.938;2023-04-25T02:53:54;3.88;;;2.42;;
21754;SDS011;11039;50.028;19.938;2023-04-25T02:56:20;2.15;;;1.83;;
21754;SDS011;11039;50.028;19.938;2023-04-25T02:58:46;2.42;;;1.95;;
21754;SDS011;11039;50.028;19.938;2023-04-25T03:01:12;2.08;;;1.85;;
21754;SDS011;11039;50.028;19.938;2023-04-25T03:03:38;2.60;;;2.00;;
21754;SDS011;11039;50.028;19.938;2023-04-25T03:06:04;2.33;;;1.85;;
21754;SDS011;11039;50.028;19.938;2023-04-25T03:08:30;2.30;;;1.90;;
21754;SDS011;11039;50.028;19.938;2023-04-25T03:10:57;2.25;;;1.70;;
21754;SDS011;11039;50.028;19.938;2023-04-25T03:13:24;2.95;;;1.80;;
21754;SDS011;11039;50.028;19.938;2023-04-25T03:15:50;2.20;;;2.00;;
21754;SDS011;11039;50.028;19.938;2023-04-25T03:18:16;2.50;;;1.90;;
21754;SDS011;11039;50.028;19.938;2023-04-25T03:20:42;2.10;;;1.67;;
21754;SDS011;11039;50.028;19.938;2023-04-25T03:23:08;2.03;;;1.73;;
21754;SDS011;11039;50.028;19.938;2023-04-25T03:25:34;2.47;;;1.80;;
21754;SDS011;11039;50.028;19.938;2023-04-25T03:28:00;2.38;;;1.75;;
21754;SDS011;11039;50.028;19.938;2023-04-25T03:30:27;2.05;;;1.80;;
21754;SDS011;11039;50.028;19.938;2023-04-25T03:32:53;3.20;;;2.10;;
21754;SDS011;11039;50.028;19.938;2023-04-25T03:35:19;2.88;;;1.70;;
21754;SDS011;11039;50.028;19.938;2023-04-25T03:37:45;2.70;;;1.65;;
21754;SDS011;11039;50.028;19.938;2023-04-25T03:40:11;2.58;;;1.38;;
21754;SDS011;11039;50.028;19.938;2023-04-25T03:42:37;3.05;;;1.90;;
21754;SDS011;11039;50.028;19.938;2023-04-25T03:45:03;2.42;;;1.63;;
21754;SDS011;11039;50.028;19.938;2023-04-25T03:47:29;2.13;;;1.80;;
21754;SDS011;11039;50.028;19.938;2023-04-25T03:49:55;2.58;;;1.70;;
21754;SDS011;11039;50.028;19.938;2023-04-25T03:52:21;2.78;;;1.60;;
21754;SDS011;11039;50.028;19.938;2023-04-25T03:54:47;1.63;;;1.48;;
21754;SDS011;11039;50.028;19.938;2023-04-25T03:57:14;2.05;;;1.65;;
21754;SDS011;11039;50.028;19.938;2023-04-25T03:59:40;2.40;;;1.77;;
21754;SDS011;11039;50.028;19.938;2023-04-25T04:02:07;1.83;;;1.65;;
21754;SDS011;11039;50.028;19.938;2023-04-25T04:04:33;2.20;;;1.73;;
21754;SDS011;11039;50.028;19.938;2023-04-25T04:06:59;2.58;;;1.63;;
21754;SDS011;11039;50.028;19.938;2023-04-25T04:09:25;2.35;;;1.73;;
21754;SDS011;11039;50.028;19.938;2023-04-25T04:11:52;2.30;;;1.45;;
21754;SDS011;11039;50.028;19.938;2023-04-25T04:14:18;1.60;;;1.42;;
21754;SDS011;11039;50.028;19.938;2023-04-25T04:16:44;2.65;;;1.90;;
21754;SDS011;11039;50.028;19.938;2023-04-25T04:19:10;2.80;;;1.42;;
21754;SDS011;11039;50.028;19.938;2023-04-25T04:21:36;1.95;;;1.60;;
21754;SDS011;11039;50.028;19.938;2023-04-25T04:24:02;1.70;;;1.58;;
21754;SDS011;11039;50.028;19.938;2023-04-25T04:26:29;2.47;;;1.38;;
21754;SDS011;11039;50.028;19.938;2023-04-25T04:28:56;2.75;;;1.50;;
21754;SDS011;11039;50.028;19.938;2023-04-25T04:31:24;1.60;;;1.20;;
21754;SDS011;11039;50.028;19.938;2023-04-25T04:33:50;2.97;;;1.60;;
21754;SDS011;11039;50.028;19.938;2023-04-25T04:36:16;2.25;;;1.58;;
21754;SDS011;11039;50.028;19.938;2023-04-25T04:38:45;2.05;;;1.60;;
21754;SDS011;11039;50.028;19.938;2023-04-25T04:41:11;1.85;;;1.52;;
21754;SDS011;11039;50.028;19.938;2023-04-25T04:43:37;1.67;;;1.45;;
21754;SDS011;11039;50.028;19.938;2023-04-25T04:46:04;2.47;;;1.40;;
21754;SDS011;11039;50.028;19.938;2023-04-25T04:48:33;1.80;;;1.50;;
21754;SDS011;11039;50.028;19.938;2023-04-25T04:50:59;1.52;;;1.42;;
21754;SDS011;11039;50.028;19.938;2023-04-25T04:53:26;2.30;;;1.33;;
21754;SDS011;11039;50.028;19.938;2023-04-25T04:55:52;1.65;;;1.40;;
21754;SDS011;11039;50.028;19.938;2023-04-25T04:58:18;1.98;;;1.45;;
21754;SDS011;11039;50.028;19.938;2023-04-25T05:00:44;2.03;;;1.70;;
21754;SDS011;11039;50.028;19.938;2023-04-25T05:03:11;1.63;;;1.33;;
21754;SDS011;11039;50.028;19.938;2023-04-25T05:05:38;2.00;;;1.60;;
21754;SDS011;11039;50.028;19.938;2023-04-25T05:08:05;1.63;;;1.42;;
21754;SDS011;11039;50.028;19.938;2023-04-25T05:10:31;2.33;;;1.50;;
21754;SDS011;11039;50.028;19.938;2023-04-25T05:12:57;1.75;;;1.40;;
21754;SDS011;11039;50.028;19.938;2023-04-25T05:15:23;2.05;;;1.63;;
21754;SDS011;11039;50.028;19.938;2023-04-25T05:17:49;2.08;;;1.67;;
21754;SDS011;11039;50.028;19.938;2023-04-25T05:20:15;1.52;;;1.38;;
21754;SDS011;11039;50.028;19.938;2023-04-25T05:22:44;1.92;;;1.67;;
21754;SDS011;11039;50.028;19.938;2023-04-25T05:25:10;2.85;;;1.40;;
21754;SDS011;11039;50.028;19.938;2023-04-25T05:27:36;2.70;;;1.50;;
21754;SDS011;11039;50.028;19.938;2023-04-25T05:30:03;1.90;;;1.35;;
21754;SDS011;11039;50.028;19.938;2023-04-25T05:32:30;3.47;;;1.70;;
21754;SDS011;11039;50.028;19.938;2023-04-25T05:34:56;1.65;;;1.52;;
21754;SDS011;11039;50.028;19.938;2023-04-25T05:37:22;2.45;;;1.50;;
21754;SDS011;11039;50.028;19.938;2023-04-25T05:39:48;3.85;;;1.30;;
21754;SDS011;11039;50.028;19.938;2023-04-25T05:42:14;2.28;;;1.55;;
21754;SDS011;11039;50.028;19.938;2023-04-25T05:44:40;5.97;;;1.92;;
21754;SDS011;11039;50.028;19.938;2023-04-25T05:47:06;3.92;;;1.50;;
21754;SDS011;11039;50.028;19.938;2023-04-25T05:49:33;3.28;;;1.50;;
21754;SDS011;11039;50.028;19.938;2023-04-25T05:51:59;2.75;;;1.52;;
21754;SDS011;11039;50.028;19.938;2023-04-25T05:54:25;2.40;;;1.65;;
21754;SDS011;11039;50.028;19.938;2023-04-25T05:56:51;3.58;;;1.50;;
21754;SDS011;11039;50.028;19.938;2023-04-25T05:59:17;1.98;;;1.40;;
21754;SDS011;11039;50.028;19.938;2023-04-25T06:01:43;2.83;;;1.55;;
21754;SDS011;11039;50.028;19.938;2023-04-25T06:04:09;2.60;;;1.40;;
21754;SDS011;11039;50.028;19.938;2023-04-25T06:06:35;1.85;;;1.20;;
21754;SDS011;11039;50.028;19.938;2023-04-25T06:09:01;3.95;;;1.65;;
21754;SDS011;11039;50.028;19.938;2023-04-25T06:11:27;2.88;;;1.50;;
21754;SDS011;11039;50.028;19.938;2023-04-25T06:13:53;3.00;;;1.27;;
21754;SDS011;11039;50.028;19.938;2023-04-25T06:16:20;3.13;;;1.38;;
21754;SDS011;11039;50.028;19.938;2023-04-25T06:18:46;2.58;;;1.50;;
21754;SDS011;11039;50.028;19.938;2023-04-25T06:21:12;5.43;;;1.52;;
21754;SDS011;11039;50.028;19.938;2023-04-25T06:23:38;2.60;;;1.55;;
21754;SDS011;11039;50.028;19.938;2023-04-25T06:26:04;2.72;;;1.40;;
21754;SDS011;11039;50.028;19.938;2023-04-25T06:28:30;1.70;;;1.20;;
21754;SDS011;11039;50.028;19.938;2023-04-25T06:30:56;2.50;;;1.45;;
21754;SDS011;11039;50.028;19.938;2023-04-25T06:33:22;4.55;;;1.52;;
21754;SDS011;11039;50.028;19.938;2023-04-25T06:35:49;2.20;;;1.13;;
21754;SDS011;11039;50.028;19.938;2023-04-25T06:38:15;3.72;;;1.48;;
21754;SDS011;11039;50.028;19.938;2023-04-25T06:40:41;1.88;;;1.38;;
21754;SDS011;11039;50.028;19.938;2023-04-25T06:43:07;2.42;;;1.42;;
21754;SDS011;11039;50.028;19.938;2023-04-25T06:45:33;4.05;;;1.73;;
21754;SDS011;11039;50.028;19.938;2023-04-25T06:47:59;3.78;;;1.70;;
21754;SDS011;11039;50.028;19.938;2023-04-25T06:50:25;3.88;;;1.42;;
21754;SDS011;11039;50.028;19.938;2023-04-25T06:52:51;4.18;;;1.48;;
21754;SDS011;11039;50.028;19.938;2023-04-25T06:55:17;2.65;;;1.70;;
21754;SDS011;11039;50.028;19.938;2023-04-25T06:57:43;2.60;;;1.50;;
21754;SDS011;11039;50.028;19.938;2023-04-25T07:00:09;1.42;;;1.30;;
21754;SDS011;11039;50.028;19.938;2023-04-25T07:02:36;1.83;;;1.27;;
21754;SDS011;11039;50.028;19.938;2023-04-25T07:05:02;1.80;;;1.50;;
21754;SDS011;11039;50.028;19.938;2023-04-25T07:07:29;2.10;;;1.30;;
21754;SDS011;11039;50.028;19.938;2023-04-25T07:09:55;4.18;;;1.52;;
21754;SDS011;11039;50.028;19.938;2023-04-25T07:12:22;3.15;;;1.50;;
21754;SDS011;11039;50.028;19.938;2023-04-25T07:14:48;2.40;;;1.30;;
21754;SDS011;11039;50.028;19.938;2023-04-25T07:17:14;1.85;;;1.45;;
21754;SDS011;11039;50.028;19.938;2023-04-25T07:19:40;2.42;;;1.42;;
21754;SDS011;11039;50.028;19.938;2023-04-25T07:22:06;2.60;;;1.52;;
21754;SDS011;11039;50.028;19.938;2023-04-25T07:24:33;3.58;;;1.30;;
21754;SDS011;11039;50.028;19.938;2023-04-25T07:26:59;2.33;;;1.20;;
21754;SDS011;11039;50.028;19.938;2023-04-25T07:29:26;2.17;;;1.50;;
21754;SDS011;11039;50.028;19.938;2023-04-25T07:31:52;1.45;;;1.15;;
21754;SDS011;11039;50.028;19.938;2023-04-25T07:34:18;1.80;;;1.23;;
21754;SDS011;11039;50.028;19.938;2023-04-25T07:36:44;1.80;;;1.30;;
21754;SDS011;11039;50.028;19.938;2023-04-25T07:39:10;1.63;;;1.40;;
21754;SDS011;11039;50.028;19.938;2023-04-25T07:41:36;4.50;;;1.40;;
21754;SDS011;11039;50.028;19.938;2023-04-25T07:44:02;1.88;;;1.20;;
21754;SDS011;11039;50.028;19.938;2023-04-25T07:46:28;2.88;;;1.40;;
21754;SDS011;11039;50.028;19.938;2023-04-25T07:48:55;2.95;;;1.20;;
21754;SDS011;11039;50.028;19.938;2023-04-25T07:51:21;1.90;;;1.33;;
21754;SDS011;11039;50.028;19.938;2023-04-25T07:53:47;2.72;;;1.20;;
21754;SDS011;11039;50.028;19.938;2023-04-25T07:56:13;1.92;;;1.45;;
21754;SDS011;11039;50.028;19.938;2023-04-25T07:58:39;3.17;;;1.27;;
21754;SDS011;11039;50.028;19.938;2023-04-25T08:01:05;2.05;;;1.35;;
21754;SDS011;11039;50.028;19.938;2023-04-25T08:03:31;2.35;;;1.48;;
21754;SDS011;11039;50.028;19.938;2023-04-25T08:05:57;2.47;;;1.52;;
21754;SDS011;11039;50.028;19.938;2023-04-25T08:08:23;2.17;;;1.40;;
21754;SDS011;11039;50.028;19.938;2023-04-25T08:10:49;1.95;;;1.50;;
21754;SDS011;11039;50.028;19.938;2023-04-25T08:13:16;2.85;;;1.50;;
21754;SDS011;11039;50.028;19.938;2023-04-25T08:15:42;2.83;;;1.50;;
21754;SDS011;11039;50.028;19.938;2023-04-25T08:18:08;2.58;;;1.60;;
21754;SDS011;11039;50.028;19.938;2023-04-25T08:20:34;2.60;;;1.50;;
21754;SDS011;11039;50.028;19.938;2023-04-25T08:23:00;1.83;;;1.58;;
21754;SDS011;11039;50.028;19.938;2023-04-25T08:25:27;1.75;;;1.50;;
21754;SDS011;11039;50.028;19.938;2023-04-25T08:27:53;2.88;;;1.70;;
21754;SDS011;11039;50.028;19.938;2023-04-25T08:30:19;5.93;;;1.60;;
21754;SDS011;11039;50.028;19.938;2023-04-25T08:32:45;2.05;;;1.50;;
21754;SDS011;11039;50.028;19.938;2023-04-25T08:35:11;4.07;;;1.73;;
21754;SDS011;11039;50.028;19.938;2023-04-25T08:37:37;1.73;;;1.40;;
21754;SDS011;11039;50.028;19.938;2023-04-25T08:40:04;2.40;;;1.67;;
21754;SDS011;11039;50.028;19.938;2023-04-25T08:42:32;2.65;;;1.88;;
21754;SDS011;11039;50.028;19.938;2023-04-25T08:45:02;2.92;;;1.95;;
21754;SDS011;11039;50.028;19.938;2023-04-25T08:47:28;2.55;;;1.73;;
21754;SDS011;11039;50.028;19.938;2023-04-25T08:49:55;2.30;;;1.70;;
21754;SDS011;11039;50.028;19.938;2023-04-25T08:52:22;2.30;;;1.50;;
21754;SDS011;11039;50.028;19.938;2023-04-25T08:54:49;2.10;;;1.80;;
21754;SDS011;11039;50.028;19.938;2023-04-25T08:57:17;2.63;;;1.58;;
21754;SDS011;11039;50.028;19.938;2023-04-25T08:59:44;2.88;;;1.70;;
21754;SDS011;11039;50.028;19.938;2023-04-25T09:02:11;2.25;;;1.80;;
21754;SDS011;11039;50.028;19.938;2023-04-25T09:04:42;3.30;;;2.20;;
21754;SDS011;11039;50.028;19.938;2023-04-25T09:07:08;1.92;;;1.75;;
21754;SDS011;11039;50.028;19.938;2023-04-25T09:09:35;3.17;;;2.10;;
21754;SDS011;11039;50.028;19.938;2023-04-25T09:12:01;3.20;;;1.88;;
21754;SDS011;11039;50.028;19.938;2023-04-25T09:14:27;1.98;;;1.70;;
21754;SDS011;11039;50.028;19.938;2023-04-25T09:19:22;3.13;;;1.90;;
21754;SDS011;11039;50.028;19.938;2023-04-25T09:21:50;3.45;;;2.22;;
21754;SDS011;11039;50.028;19.938;2023-04-25T09:24:16;3.78;;;1.80;;
21754;SDS011;11039;50.028;19.938;2023-04-25T09:26:45;2.45;;;2.00;;
21754;SDS011;11039;50.028;19.938;2023-04-25T09:29:11;3.47;;;1.70;;
21754;SDS011;11039;50.028;19.938;2023-04-25T09:31:37;2.25;;;1.73;;
21754;SDS011;11039;50.028;19.938;2023-04-25T09:34:03;2.60;;;2.40;;
21754;SDS011;11039;50.028;19.938;2023-04-25T09:36:29;3.65;;;2.20;;
21754;SDS011;11039;50.028;19.938;2023-04-25T09:38:56;6.53;;;2.88;;
21754;SDS011;11039;50.028;19.938;2023-04-25T09:41:23;4.97;;;3.03;;
21754;SDS011;11039;50.028;19.938;2023-04-25T09:43:49;3.83;;;3.13;;
21754;SDS011;11039;50.028;19.938;2023-04-25T09:46:15;3.67;;;2.70;;
21754;SDS011;11039;50.028;19.938;2023-04-25T09:48:49;4.50;;;2.90;;
21754;SDS011;11039;50.028;19.938;2023-04-25T09:51:16;4.90;;;3.17;;
21754;SDS011;11039;50.028;19.938;2023-04-25T09:53:45;5.05;;;3.50;;
21754;SDS011;11039;50.028;19.938;2023-04-25T09:56:15;3.67;;;3.10;;
21754;SDS011;11039;50.028;19.938;2023-04-25T09:58:41;5.38;;;3.42;;
21754;SDS011;11039;50.028;19.938;2023-04-25T10:01:08;4.47;;;3.38;;
21754;SDS011;11039;50.028;19.938;2023-04-25T10:03:36;4.40;;;3.35;;
21754;SDS011;11039;50.028;19.938;2023-04-25T10:06:20;5.07;;;3.40;;
21754;SDS011;11039;50.028;19.938;2023-04-25T10:08:49;5.95;;;3.25;;
21754;SDS011;11039;50.028;19.938;2023-04-25T10:11:17;4.28;;;3.42;;
21754;SDS011;11039;50.028;19.938;2023-04-25T10:13:43;5.50;;;3.35;;
21754;SDS011;11039;50.028;19.938;2023-04-25T10:16:10;4.70;;;3.13;;
21754;SDS011;11039;50.028;19.938;2023-04-25T10:18:36;6.00;;;3.20;;
21754;SDS011;11039;50.028;19.938;2023-04-25T10:21:03;4.07;;;2.97;;
21754;SDS011;11039;50.028;19.938;2023-04-25T10:23:30;3.95;;;2.97;;
21754;SDS011;11039;50.028;19.938;2023-04-25T10:25:56;4.85;;;2.83;;
21754;SDS011;11039;50.028;19.938;2023-04-25T10:28:23;3.28;;;2.47;;
21754;SDS011;11039;50.028;19.938;2023-04-25T10:33:35;2.53;;;2.17;;
21754;SDS011;11039;50.028;19.938;2023-04-25T10:38:58;2.33;;;2.00;;
21754;SDS011;11039;50.028;19.938;2023-04-25T10:41:31;4.45;;;2.33;;
21754;SDS011;11039;50.028;19.938;2023-04-25T10:44:10;3.00;;;2.13;;
21754;SDS011;11039;50.028;19.938;2023-04-25T10:46:36;3.00;;;2.38;;
21754;SDS011;11039;50.028;19.938;2023-04-25T10:49:03;2.20;;;1.95;;
21754;SDS011;11039;50.028;19.938;2023-04-25T10:51:29;3.45;;;2.50;;
21754;SDS011;11039;50.028;19.938;2023-04-25T10:54:01;2.42;;;1.80;;
21754;SDS011;11039;50.028;19.938;2023-04-25T10:56:35;2.38;;;1.80;;
21754;SDS011;11039;50.028;19.938;2023-04-25T10:59:15;2.78;;;1.30;;
21754;SDS011;11039;50.028;19.938;2023-04-25T11:09:25;2.97;;;1.60;;
21754;SDS011;11039;50.028;19.938;2023-04-25T11:11:53;2.70;;;1.60;;
21754;SDS011;11039;50.028;19.938;2023-04-25T11:14:20;3.17;;;1.75;;
21754;SDS011;11039;50.028;19.938;2023-04-25T11:16:46;2.13;;;1.60;;
21754;SDS011;11039;50.028;19.938;2023-04-25T11:19:12;2.15;;;1.88;;
21754;SDS011;11039;50.028;19.938;2023-04-25T11:21:38;2.47;;;1.77;;
21754;SDS011;11039;50.028;19.938;2023-04-25T11:24:05;2.47;;;1.90;;
21754;SDS011;11039;50.028;19.938;2023-04-25T11:26:31;3.63;;;2.00;;
21754;SDS011;11039;50.028;19.938;2023-04-25T11:29:00;4.68;;;1.90;;
21754;SDS011;11039;50.028;19.938;2023-04-25T11:31:26;3.40;;;2.08;;
21754;SDS011;11039;50.028;19.938;2023-04-25T11:33:53;2.50;;;1.67;;
21754;SDS011;11039;50.028;19.938;2023-04-25T11:36:20;2.92;;;1.80;;
21754;SDS011;11039;50.028;19.938;2023-04-25T11:38:46;3.83;;;1.80;;
21754;SDS011;11039;50.028;19.938;2023-04-25T11:41:12;4.15;;;2.00;;
21754;SDS011;11039;50.028;19.938;2023-04-25T11:43:38;4.15;;;1.98;;
21754;SDS011;11039;50.028;19.938;2023-04-25T11:46:07;2.60;;;1.90;;
21754;SDS011;11039;50.028;19.938;2023-04-25T11:48:39;2.45;;;1.73;;
21754;SDS011;11039;50.028;19.938;2023-04-25T11:51:05;3.83;;;2.17;;
21754;SDS011;11039;50.028;19.938;2023-04-25T11:53:31;2.55;;;1.95;;
21754;SDS011;11039;50.028;19.938;2023-04-25T11:55:57;5.00;;;1.98;;
21754;SDS011;11039;50.028;19.938;2023-04-25T11:58:23;2.45;;;1.70;;
21754;SDS011;11039;50.028;19.938;2023-04-25T12:00:49;4.15;;;1.98;;
21754;SDS011;11039;50.028;19.938;2023-04-25T12:03:15;2.95;;;2.00;;
21754;SDS011;11039;50.028;19.938;2023-04-25T12:05:42;3.50;;;2.10;;
21754;SDS011;11039;50.028;19.938;2023-04-25T12:08:11;2.67;;;2.05;;
21754;SDS011;11039;50.028;19.938;2023-04-25T12:10:40;2.28;;;1.80;;
21754;SDS011;11039;50.028;19.938;2023-04-25T12:13:25;2.22;;;1.77;;
21754;SDS011;11039;50.028;19.938;2023-04-25T12:15:56;4.32;;;2.40;;
21754;SDS011;11039;50.028;19.938;2023-04-25T12:18:23;2.45;;;1.92;;
21754;SDS011;11039;50.028;19.938;2023-04-25T12:20:52;4.00;;;2.13;;
21754;SDS011;11039;50.028;19.938;2023-04-25T12:23:24;4.90;;;2.38;;
21754;SDS011;11039;50.028;19.938;2023-04-25T12:25:51;5.25;;;2.30;;
21754;SDS011;11039;50.028;19.938;2023-04-25T12:28:21;3.05;;;2.08;;
21754;SDS011;11039;50.028;19.938;2023-04-25T12:30:56;6.53;;;2.33;;
21754;SDS011;11039;50.028;19.938;2023-04-25T12:33:23;4.13;;;2.30;;
21754;SDS011;11039;50.028;19.938;2023-04-25T12:35:49;4.30;;;2.35;;
21754;SDS011;11039;50.028;19.938;2023-04-25T12:38:25;4.22;;;2.20;;
21754;SDS011;11039;50.028;19.938;2023-04-25T12:40:51;4.25;;;2.45;;
21754;SDS011;11039;50.028;19.938;2023-04-25T12:43:18;4.40;;;2.20;;
21754;SDS011;11039;50.028;19.938;2023-04-25T12:45:44;4.28;;;2.88;;
21754;SDS011;11039;50.028;19.938;2023-04-25T12:48:10;4.60;;;2.22;;
21754;SDS011;11039;50.028;19.938;2023-04-25T12:50:37;3.83;;;2.00;;
21754;SDS011;11039;50.028;19.938;2023-04-25T12:53:03;3.45;;;1.95;;
21754;SDS011;11039;50.028;19.938;2023-04-25T12:55:29;4.03;;;1.88;;
21754;SDS011;11039;50.028;19.938;2023-04-25T12:57:55;2.65;;;2.08;;
21754;SDS011;11039;50.028;19.938;2023-04-25T13:00:21;2.67;;;1.80;;
21754;SDS011;11039;50.028;19.938;2023-04-25T13:02:47;2.50;;;2.10;;
21754;SDS011;11039;50.028;19.938;2023-04-25T13:05:13;6.25;;;2.08;;
21754;SDS011;11039;50.028;19.938;2023-04-25T13:07:39;2.65;;;1.67;;
21754;SDS011;11039;50.028;19.938;2023-04-25T13:10:06;3.92;;;2.13;;
21754;SDS011;11039;50.028;19.938;2023-04-25T13:12:32;3.53;;;1.65;;
21754;SDS011;11039;50.028;19.938;2023-04-25T13:14:58;2.70;;;1.70;;
21754;SDS011;11039;50.028;19.938;2023-04-25T13:17:24;2.72;;;1.98;;
21754;SDS011;11039;50.028;19.938;2023-04-25T13:19:50;2.05;;;1.60;;
21754;SDS011;11039;50.028;19.938;2023-04-25T13:22:16;2.60;;;1.83;;
21754;SDS011;11039;50.028;19.938;2023-04-25T13:24:45;3.65;;;1.92;;
21754;SDS011;11039;50.028;19.938;2023-04-25T13:27:11;2.58;;;1.80;;
21754;SDS011;11039;50.028;19.938;2023-04-25T13:29:38;1.88;;;1.42;;
21754;SDS011;11039;50.028;19.938;2023-04-25T13:32:05;2.17;;;1.52;;
21754;SDS011;11039;50.028;19.938;2023-04-25T13:34:31;3.53;;;1.80;;
21754;SDS011;11039;50.028;19.938;2023-04-25T13:36:57;3.15;;;1.80;;
21754;SDS011;11039;50.028;19.938;2023-04-25T13:39:24;2.55;;;1.50;;
21754;SDS011;11039;50.028;19.938;2023-04-25T13:41:50;3.05;;;1.85;;
21754;SDS011;11039;50.028;19.938;2023-04-25T13:44:16;2.45;;;1.85;;
21754;SDS011;11039;50.028;19.938;2023-04-25T13:46:42;2.20;;;1.58;;
21754;SDS011;11039;50.028;19.938;2023-04-25T13:49:08;3.17;;;2.10;;
21754;SDS011;11039;50.028;19.938;2023-04-25T13:51:34;2.97;;;1.50;;
21754;SDS011;11039;50.028;19.938;2023-04-25T13:54:00;3.15;;;1.73;;
21754;SDS011;11039;50.028;19.938;2023-04-25T13:56:26;3.15;;;1.60;;
21754;SDS011;11039;50.028;19.938;2023-04-25T13:58:52;3.95;;;1.75;;
21754;SDS011;11039;50.028;19.938;2023-04-25T14:01:18;2.13;;;1.60;;
21754;SDS011;11039;50.028;19.938;2023-04-25T14:03:46;2.97;;;1.50;;
21754;SDS011;11039;50.028;19.938;2023-04-25T14:06:12;3.03;;;1.75;;
21754;SDS011;11039;50.028;19.938;2023-04-25T14:08:38;3.28;;;1.63;;
21754;SDS011;11039;50.028;19.938;2023-04-25T14:11:05;2.05;;;1.50;;
21754;SDS011;11039;50.028;19.938;2023-04-25T14:13:31;3.15;;;1.70;;
21754;SDS011;11039;50.028;19.938;2023-04-25T14:15:57;2.10;;;1.58;;
21754;SDS011;11039;50.028;19.938;2023-04-25T14:18:23;2.63;;;1.88;;
21754;SDS011;11039;50.028;19.938;2023-04-25T14:20:49;1.90;;;1.70;;
21754;SDS011;11039;50.028;19.938;2023-04-25T14:23:16;3.90;;;1.80;;
21754;SDS011;11039;50.028;19.938;2023-04-25T14:25:42;2.13;;;1.60;;
21754;SDS011;11039;50.028;19.938;2023-04-25T14:28:09;1.75;;;1.60;;
21754;SDS011;11039;50.028;19.938;2023-04-25T14:30:35;2.78;;;1.70;;
21754;SDS011;11039;50.028;19.938;2023-04-25T14:33:01;2.83;;;1.92;;
21754;SDS011;11039;50.028;19.938;2023-04-25T14:35:27;2.40;;;1.65;;
21754;SDS011;11039;50.028;19.938;2023-04-25T14:37:53;2.22;;;1.70;;
21754;SDS011;11039;50.028;19.938;2023-04-25T14:40:20;2.33;;;2.10;;
21754;SDS011;11039;50.028;19.938;2023-04-25T14:42:48;2.97;;;2.17;;
21754;SDS011;11039;50.028;19.938;2023-04-25T14:45:15;2.45;;;1.90;;